Data for 04/12/2016

Time Sea-Level Adjusted Pressure Absolute Pressure Temperature Relative Humidity Dew Point   
(mb) (inHg) (mb) (inHg) (C) (F) (%) (C) (F)
00:05 1017 30.03 846 24.98 8.1 46.6 45 -3.2 26.2
00:10 1017 30.03 846 24.98 8.1 46.5 44 -3.3 26
00:15 1017 30.03 846 24.98 8 46.4 46 -2.8 27
00:20 1017 30.03 846 24.98 7.8 46 46 -3 26.6
00:25 1017 30.03 846 24.98 8.1 46.6 45 -3.1 26.3
00:30 1017 30.03 846 24.98 8.3 46.9 44 -3.2 26.3
00:35 1017 30.03 846 24.98 8.5 47.2 44 -3.2 26.2
00:40 1017 30.03 846 24.98 8.4 47.1 44 -3 26.6
00:45 1017 30.03 846 24.98 8.4 47.1 44 -3.1 26.5
00:50 1017 30.03 846 24.98 8.3 46.9 45 -3.1 26.5
00:55 1017 30.03 846 24.98 8.4 47.1 43 -3.5 25.6
01:00 1017 30.03 846 24.98 8.7 47.7 42 -3.3 26.1
01:05 1017 30.03 846 24.98 8.6 47.6 42 -3.5 25.7
01:10 1017 30.03 846 24.98 8.6 47.4 41 -3.8 25.2
01:15 1017 30.03 847 25.01 8.3 46.9 43 -3.4 25.8
01:20 1017 30.03 847 25.01 7.5 45.6 45 -3.5 25.7
01:25 1017 30.03 847 25.01 7.8 46.1 43 -3.9 25.1
01:30 1017 30.03 847 25.01 7.9 46.3 45 -3.1 26.4
01:35 1017 30.03 846 24.98 7.6 45.7 45 -3.5 25.8
01:40 1017 30.03 846 24.98 8 46.3 45 -3.2 26.2
01:45 1017 30.03 846 24.98 8.2 46.7 43 -3.7 25.4
01:50 1017 30.03 846 24.98 7.9 46.3 43 -3.8 25.1
01:55 1017 30.03 846 24.98 8 46.5 41 -4.3 24.3
02:00 1017 30.03 846 24.98 8.1 46.6 43 -3.8 25.2
02:05 1017 30.03 846 24.98 7.8 46 44 -3.6 25.6
02:10 1017 30.03 846 24.98 7.2 45 45 -3.8 25.2
02:15 1017 30.03 846 24.98 7.2 44.9 47 -3.5 25.7
02:20 1017 30.03 847 25.01 6.9 44.3 47 -3.6 25.5
02:25 1017 30.03 847 25.01 6.8 44.2 48 -3.4 25.9
02:30 1017 30.03 847 25.01 6.9 44.4 47 -3.6 25.5
02:35 1017 30.03 847 25.01 6.9 44.5 47 -3.6 25.6
02:40 1017 30.03 847 25.01 6.9 44.5 46 -3.7 25.3
02:45 1017 30.03 847 25.01 7.5 45.4 43 -4.3 24.2
02:50 1017 30.03 847 25.01 7.8 46 45 -3.5 25.6
02:55 1018 30.06 847 25.01 7.1 44.8 46 -3.6 25.5
03:00 1018 30.06 847 25.01 7.1 44.7 45 -4.1 24.6
03:05 1018 30.06 847 25.01 7.1 44.9 45 -4 24.8
03:10 1018 30.06 847 25.01 7 44.6 47 -3.6 25.5
03:15 1018 30.06 847 25.01 6.7 44 48 -3.6 25.5
03:20 1018 30.06 847 25.01 6.2 43.1 50 -3.6 25.5
03:25 1018 30.06 847 25.01 6.2 43.2 47 -4.2 24.5
03:30 1018 30.06 847 25.01 6.2 43.2 49 -3.7 25.3
03:35 1018 30.06 847 25.01 6.1 43 48 -4 24.8
03:40 1018 30.06 847 25.01 5.8 42.5 49 -3.9 24.9
03:45 1018 30.06 847 25.01 6.2 43.1 46 -4.5 24
03:50 1018 30.06 847 25.01 6.8 44.2 46 -4 24.7
03:55 1018 30.06 847 25.01 6.7 44 46 -4.1 24.7
04:00 1018 30.06 847 25.01 6.6 43.8 46 -4.2 24.5
04:05 1018 30.06 847 25.01 6.7 44 46 -4.1 24.6
04:10 1018 30.06 847 25.01 6.3 43.3 48 -4 24.8
04:15 1018 30.06 847 25.01 5.9 42.7 48 -4.2 24.4
04:20 1018 30.06 847 25.01 5.9 42.6 48 -4.2 24.4
04:25 1018 30.06 847 25.01 6.2 43.2 47 -4.3 24.3
04:30 1018 30.06 847 25.01 6.2 43.1 48 -4 24.8
04:35 1018 30.06 847 25.01 6.3 43.3 44 -5 22.9
04:40 1018 30.06 847 25.01 6.7 44 46 -4.2 24.4
04:45 1018 30.06 847 25.01 6.7 44 45 -4.5 24
04:50 1018 30.06 847 25.01 6.8 44.2 44 -4.6 23.8
04:55 1018 30.06 847 25.01 6.9 44.4 45 -4.2 24.5
05:00 1018 30.06 847 25.01 6.4 43.5 47 -4 24.9
05:05 1018 30.06 847 25.01 6 42.9 49 -3.9 25
05:10 1018 30.06 847 25.01 5.8 42.4 49 -4 24.7
05:15 1018 30.06 847 25.01 5.9 42.6 48 -4.3 24.3
05:20 1018 30.06 847 25.01 6.1 42.9 48 -4 24.8
05:25 1018 30.06 847 25.01 5.8 42.4 50 -3.9 25
05:30 1018 30.06 847 25.01 5.9 42.6 47 -4.6 23.8
05:35 1018 30.06 847 25.01 6.4 43.5 46 -4.3 24.3
05:40 1018 30.06 847 25.01 6.3 43.4 47 -4.2 24.4
05:45 1018 30.06 847 25.01 6.5 43.7 45 -4.4 24.1
05:50 1018 30.06 847 25.01 6.6 43.9 46 -4.2 24.5
05:55 1018 30.06 847 25.01 6.6 43.8 45 -4.5 24
06:00 1018 30.06 847 25.01 6.7 44 45 -4.4 24.1
06:05 1018 30.06 847 25.01 6.7 44.1 46 -4.2 24.4
06:10 1018 30.06 847 25.01 6.6 43.9 46 -4.2 24.5
06:15 1018 30.06 847 25.01 6.5 43.7 46 -4.2 24.5
06:20 1018 30.06 847 25.01 6.4 43.5 47 -4.1 24.7
06:25 1018 30.06 847 25.01 6.4 43.5 47 -4 24.8
06:30 1018 30.06 847 25.01 6.6 44 48 -3.6 25.5
06:35 1018 30.06 847 25.01 6.8 44.2 47 -3.6 25.5
06:40 1018 30.06 848 25.04 7.1 44.8 46 -3.6 25.6
06:45 1018 30.06 848 25.04 7.5 45.4 45 -3.6 25.4
06:50 1018 30.06 848 25.04 7.8 46 44 -3.6 25.5
06:55 1018 30.06 848 25.04 8.1 46.6 44 -3.5 25.7
07:00 1018 30.06 848 25.04 8.2 46.7 47 -2.3 27.8
07:05 1018 30.06 848 25.04 8.6 47.4 43 -3.4 26
07:10 1018 30.06 848 25.04 8.9 47.9 41 -3.5 25.7
07:15 1018 30.06 848 25.04 9.1 48.3 42 -3.3 26.1
07:20 1018 30.06 848 25.04 9.5 49.1 42 -2.7 27.2
07:25 1018 30.06 848 25.04 10 50 41 -2.6 27.3
07:30 1018 30.06 848 25.04 10 49.9 42 -2.3 27.8
07:35 1018 30.06 848 25.04 10.3 50.5 41 -2.2 28
07:40 1018 30.06 848 25.04 10.7 51.2 42 -1.7 28.9
07:45 1018 30.06 848 25.04 10.9 51.7 40 -2.1 28.2
07:50 1018 30.06 848 25.04 11.3 52.3 38 -2.4 27.7
07:55 1018 30.06 848 25.04 11.6 52.9 37 -2.7 27.1
08:00 1018 30.06 848 25.04 12.6 54.7 32 -3.4 25.8
08:05 1019 30.09 848 25.04 13.2 55.7 32 -3.1 26.4
08:10 1019 30.09 848 25.04 13 55.3 34 -2.5 27.4
08:15 1019 30.09 848 25.04 13.5 56.3 32 -2.6 27.3
08:20 1018 30.06 848 25.04 14 57.1 32 -2.5 27.5
08:25 1018 30.06 848 25.04 14 57.3 32 -2.3 27.8
08:30 1018 30.06 848 25.04 13.7 56.6 31 -3.2 26.2
08:35 1018 30.06 848 25.04 14.4 57.8 28 -3.9 24.9
08:40 1018 30.06 848 25.04 14.5 58.1 27 -4.1 24.7
08:45 1018 30.06 848 25.04 15 59.1 28 -3.2 26.3
08:50 1018 30.06 848 25.04 14.9 58.9 30 -2.4 27.7
08:55 1018 30.06 848 25.04 14.8 58.6 30 -2.6 27.3
09:00 1018 30.06 847 25.01 14.6 58.2 29 -3.2 26.3
09:05 1018 30.06 847 25.01 14.5 58.1 29 -3.3 26.1
09:10 1018 30.06 847 25.01 14.9 58.7 27 -3.7 25.3
09:15 1018 30.06 847 25.01 15 58.9 28 -3.5 25.7
09:20 1018 30.06 847 25.01 15.3 59.5 27 -3.5 25.7
09:25 1018 30.06 847 25.01 15.7 60.3 26 -3.7 25.3
09:30 1018 30.06 847 25.01 15.9 60.6 26 -3.3 26
09:35 1018 30.06 847 25.01 16.1 61 27 -3.1 26.5
09:40 1018 30.06 847 25.01 15.5 59.9 28 -2.7 27.2
09:45 1018 30.06 847 25.01 15.4 59.7 28 -3 26.5
09:50 1018 30.06 847 25.01 15.9 60.7 26 -3.6 25.5
09:55 1018 30.06 847 25.01 16.7 62 25 -3.3 26.1
10:00 1018 30.06 847 25.01 17.1 62.7 24 -3.6 25.6
10:05 1018 30.06 847 25.01 17.7 63.8 24 -3.2 26.2
10:10 1018 30.06 847 25.01 17.8 64 23 -3.4 25.8
10:15 1018 30.06 847 25.01 17.5 63.6 24 -3 26.7
10:20 1018 30.06 847 25.01 17.6 63.6 23 -3.7 25.3
10:25 1018 30.06 847 25.01 17.8 64 23 -3.3 26
10:30 1018 30.06 847 25.01 18.1 64.6 22 -3.9 25.1
10:35 1018 30.06 847 25.01 18.7 65.6 22 -3.5 25.8
10:40 1018 30.06 847 25.01 19 66.3 20 -4.1 24.7
10:45 1018 30.06 847 25.01 19.4 66.9 20 -3.7 25.4
10:50 1018 30.06 847 25.01 19.7 67.5 20 -3.7 25.3
10:55 1018 30.06 847 25.01 19.7 67.5 21 -3.3 26.1
11:00 1018 30.06 847 25.01 19.5 67.2 21 -3.5 25.7
11:05 1018 30.06 847 25.01 19.9 67.9 18 -4.7 23.6
11:10 1018 30.06 847 25.01 20.4 68.6 20 -2.9 26.8
11:15 1018 30.06 847 25.01 20.7 69.3 19 -3.4 25.9
11:20 1017 30.03 847 25.01 20.4 68.7 20 -3 26.7
11:25 1017 30.03 847 25.01 19.5 67.1 21 -3.6 25.6
11:30 1017 30.03 847 25.01 19.5 67.1 20 -3.6 25.5
11:35 1017 30.03 846 24.98 20.2 68.4 19 -3.9 24.9
11:40 1017 30.03 846 24.98 21 69.7 16 -6 21.1
11:45 1017 30.03 846 24.98 20.9 69.6 18 -3.9 24.9
11:50 1017 30.03 846 24.98 20.9 69.6 18 -3.8 25.1
11:55 1017 30.03 846 24.98 21.4 70.4 18 -4.1 24.7
12:00 1017 30.03 846 24.98 20.6 69.1 20 -3.3 26.1
12:05 1017 30.03 846 24.98 21.2 70.1 19 -3.3 26
12:10 1017 30.03 846 24.98 21.2 70.1 18 -4 24.8
12:15 1017 30.03 846 24.98 20.4 68.7 19 -3.8 25.1
12:20 1017 30.03 846 24.98 19.3 66.7 20 -4.4 24.2
12:25 1017 30.03 846 24.98 19.6 67.2 20 -3.9 25.1
12:30 1017 30.03 846 24.98 20.2 68.3 19 -4.3 24.2
12:35 1017 30.03 846 24.98 19.8 67.7 20 -3.9 24.9
12:40 1016 30 846 24.98 20 68 19 -4.1 24.6
12:45 1016 30 846 24.98 20.6 69 19 -3.6 25.6
12:50 1016 30 846 24.98 20.3 68.5 19 -3.8 25.1
12:55 1016 30 846 24.98 20 68.1 19 -4.5 24
13:00 1016 30 845 24.95 20.3 68.6 18 -4.3 24.2
13:05 1016 30 845 24.95 20 67.9 19 -4.3 24.3
13:10 1016 30 845 24.95 20.4 68.6 18 -4.4 24.1
13:15 1016 30 845 24.95 21.1 70.1 18 -4.2 24.5
13:20 1016 30 845 24.95 21.6 70.8 18 -3.9 25
13:25 1016 30 845 24.95 22.3 72.1 17 -3.9 24.9
13:30 1016 30 845 24.95 22.1 71.7 16 -4.7 23.5
13:35 1016 30 845 24.95 22.5 72.6 15 -4.9 23.2
13:40 1016 30 845 24.95 22.8 73 15 -5.3 22.5
13:45 1016 30 845 24.95 21.9 71.5 16 -5 22.9
13:50 1016 30 845 24.95 22.1 71.8 15 -5.6 21.9
13:55 1016 30 845 24.95 22 71.5 15 -5.3 22.5
14:00 1016 30 845 24.95 22.7 72.8 17 -3.5 25.6
14:05 1016 30 845 24.95 22.5 72.5 15 -5.1 22.7
14:10 1016 30 845 24.95 21.6 71 15 -5.8 21.5
14:15 1016 30 845 24.95 21.6 70.8 15 -5.7 21.7
14:20 1016 30 845 24.95 21.8 71.2 15 -5.5 22.1
14:25 1015 29.97 845 24.95 21.2 70.1 16 -5.8 21.6
14:30 1015 29.97 845 24.95 22.3 72.2 13 -6.9 19.6
14:35 1015 29.97 844 24.92 22.5 72.4 15 -5.5 22.1
14:40 1015 29.97 844 24.92 22.3 72.1 14 -6.2 20.8
14:45 1015 29.97 844 24.92 21.7 71.1 14 -6.8 19.7
14:50 1015 29.97 844 24.92 21.8 71.2 14 -6.3 20.6
14:55 1015 29.97 844 24.92 22.7 72.9 14 -6.2 20.9
15:00 1015 29.97 844 24.92 23.2 73.7 13 -6.4 20.4
15:05 1015 29.97 844 24.92 23.1 73.5 14 -5.4 22.4
15:10 1015 29.97 844 24.92 22.1 71.7 15 -5.6 21.9
15:15 1015 29.97 844 24.92 21.2 70.2 16 -5.3 22.5
15:20 1015 29.97 844 24.92 21.1 70 16 -5.6 22
15:25 1015 29.97 844 24.92 21.1 70 14 -7 19.5
15:30 1015 29.97 844 24.92 20.8 69.4 15 -6.7 19.9
15:35 1015 29.97 844 24.92 21.5 70.7 15 -6.1 21
15:40 1015 29.97 844 24.92 21.1 69.9 15 -6.6 20.2
15:45 1015 29.97 844 24.92 21.6 70.9 15 -6.1 21.1
15:50 1015 29.97 844 24.92 22.5 72.5 14 -6.5 20.4
15:55 1015 29.97 844 24.92 22.4 72.3 13 -7 19.4
16:00 1015 29.97 844 24.92 21.8 71.3 15 -6.2 20.9
16:05 1015 29.97 844 24.92 21.6 70.8 14 -6.9 19.7
16:10 1015 29.97 844 24.92 21.3 70.3 15 -6.5 20.3
16:15 1015 29.97 844 24.92 21.1 69.9 15 -6.4 20.4
16:20 1015 29.97 844 24.92 21.1 70 15 -6.6 20.2
16:25 1015 29.97 844 24.92 21.1 70 16 -5.5 22.1
16:30 1015 29.97 844 24.92 20.8 69.4 16 -6 21.2
16:35 1015 29.97 844 24.92 20.7 69.3 16 -6.3 20.7
16:40 1015 29.97 844 24.92 21.1 70 15 -6.3 20.6
16:45 1015 29.97 844 24.92 20.6 69 17 -5.4 22.2
16:50 1015 29.97 844 24.92 20.7 69.3 17 -5.2 22.7
16:55 1015 29.97 844 24.92 21.1 70 15 -6 21.2
17:00 1015 29.97 844 24.92 21.7 71.1 15 -5.9 21.4
17:05 1015 29.97 844 24.92 21.7 71 15 -5.9 21.3
17:10 1015 29.97 844 24.92 21.1 70 16 -5.4 22.3
17:15 1014 29.94 844 24.92 20.5 68.8 16 -5.8 21.5
17:20 1014 29.94 844 24.92 20.5 68.8 17 -5.4 22.2
17:25 1014 29.94 844 24.92 20.4 68.8 17 -5.4 22.4
17:30 1015 29.97 844 24.92 20.6 69 17 -5.2 22.6
17:35 1015 29.97 844 24.92 20.4 68.8 17 -5.1 22.8
17:40 1015 29.97 844 24.92 20.1 68.1 19 -3.9 25
17:45 1015 29.97 844 24.92 19.8 67.7 21 -2.7 27.1
17:50 1015 29.97 844 24.92 19.4 66.9 22 -2.4 27.6
17:55 1015 29.97 844 24.92 19.2 66.6 23 -2.4 27.6
18:00 1015 29.97 844 24.92 18.9 65.9 23 -2.3 27.8
18:05 1015 29.97 844 24.92 18.7 65.6 24 -2.1 28.2
18:10 1015 29.97 844 24.92 18.5 65.2 24 -2.3 27.8
18:15 1015 29.97 844 24.92 18.3 64.9 24 -2.5 27.5
18:20 1015 29.97 844 24.92 18.2 64.8 24 -2.4 27.7
18:25 1015 29.97 844 24.92 18.2 64.7 25 -2.2 28.1
18:30 1015 29.97 844 24.92 17.9 64.3 25 -2.1 28.1
18:35 1015 29.97 844 24.92 17.8 64 26 -2.1 28.3
18:40 1015 29.97 844 24.92 17.7 63.8 26 -2 28.4
18:45 1015 29.97 844 24.92 17.6 63.7 25 -2.4 27.7
18:50 1015 29.97 844 24.92 17.7 63.8 24 -2.9 26.7
18:55 1015 29.97 844 24.92 17.7 63.9 24 -2.7 27.1
19:00 1015 29.97 844 24.92 17.7 63.9 25 -2.6 27.3
19:05 1015 29.97 844 24.92 17.8 64.1 24 -3 26.6
19:10 1015 29.97 844 24.92 17.8 64 27 -1.2 29.8
19:15 1015 29.97 844 24.92 17.3 63.2 28 -1.3 29.7
19:20 1015 29.97 844 24.92 17 62.6 29 -1.1 30
19:25 1015 29.97 844 24.92 16.8 62.2 30 -1 30.3
19:30 1015 29.97 844 24.92 16.6 61.9 30 -0.7 30.7
19:35 1015 29.97 844 24.92 16.3 61.3 31 -0.9 30.4
19:40 1015 29.97 844 24.92 16.3 61.3 31 -0.9 30.4
19:45 1015 29.97 844 24.92 16.1 61 31 -0.7 30.7
19:50 1015 29.97 844 24.92 15.9 60.7 32 -0.8 30.6
19:55 1015 29.97 844 24.92 15.7 60.3 32 -0.7 30.7
20:00 1015 29.97 844 24.92 15.5 59.9 33 -0.7 30.8
20:05 1015 29.97 844 24.92 15.3 59.6 34 -0.5 31
20:10 1015 29.97 844 24.92 15.3 59.5 34 -0.5 31.1
20:15 1015 29.97 844 24.92 15.2 59.4 33 -0.8 30.6
20:20 1015 29.97 844 24.92 15.1 59.2 33 -0.7 30.7
20:25 1015 29.97 844 24.92 15 59 34 -0.8 30.6
20:30 1015 29.97 844 24.92 14.9 58.8 34 -0.7 30.7
20:35 1015 29.97 844 24.92 15 58.9 34 -0.8 30.6
20:40 1015 29.97 844 24.92 15 59.1 34 -0.6 31
20:45 1015 29.97 844 24.92 14.7 58.5 36 -0.3 31.5
20:50 1015 29.97 844 24.92 14.4 57.9 36 -0.4 31.4
20:55 1015 29.97 845 24.95 14.4 57.9 37 -0.1 31.9
21:00 1015 29.97 845 24.95 14.2 57.5 37 -0.1 31.9
21:05 1015 29.97 845 24.95 13.9 57.1 39 0.2 32.3
21:10 1015 29.97 845 24.95 13.6 56.4 39 0.1 32.2
21:15 1016 30 845 24.95 13.2 55.7 40 0 32
21:20 1016 30 845 24.95 12.9 55.2 41 -0 32
21:25 1016 30 845 24.95 12.8 55 41 -0.2 31.7
21:30 1016 30 845 24.95 12.5 54.4 39 -1.1 30
21:35 1016 30 845 24.95 13 55.3 37 -1.2 29.9
21:40 1016 30 845 24.95 13 55.3 37 -1.1 30
21:45 1016 30 845 24.95 13.1 55.6 37 -1 30.2
21:50 1016 30 845 24.95 13.7 56.6 35 -1.4 29.5
21:55 1016 30 845 24.95 14.1 57.4 34 -1.5 29.3
22:00 1016 30 845 24.95 14.3 57.7 35 -0.9 30.3
22:05 1016 30 845 24.95 14.2 57.6 37 -0.3 31.4
22:10 1016 30 845 24.95 14 57.3 39 0.3 32.6
22:15 1016 30 845 24.95 13.8 56.8 39 0.2 32.3
22:20 1016 30 845 24.95 13.7 56.7 39 0.2 32.4
22:25 1016 30 845 24.95 13.7 56.7 40 0.4 32.6
22:30 1016 30 845 24.95 13.5 56.4 40 0.4 32.8
22:35 1016 30 845 24.95 13.2 55.7 41 0.3 32.5
22:40 1016 30 845 24.95 13.3 55.9 41 0.4 32.7
22:45 1016 30 845 24.95 13.3 56 41 0.4 32.8
22:50 1016 30 845 24.95 13.3 56 41 0.3 32.6
22:55 1016 30 845 24.95 13.4 56.1 41 0.4 32.8
23:00 1016 30 845 24.95 13.5 56.2 41 0.4 32.7
23:05 1016 30 845 24.95 13.4 56.2 42 0.7 33.3
23:10 1016 30 845 24.95 13.3 55.9 42 0.8 33.5
23:15 1015 29.97 845 24.95 13.2 55.7 43 0.9 33.6
23:20 1015 29.97 845 24.95 13.1 55.5 42 0.5 32.9
23:25 1015 29.97 845 24.95 13.2 55.8 42 0.7 33.2
23:30 1015 29.97 845 24.95 13.3 55.9 39 -0.2 31.7
23:35 1015 29.97 844 24.92 13.6 56.5 39 -0.2 31.7
23:40 1015 29.97 845 24.95 13.8 56.8 41 1 33.7
23:45 1015 29.97 845 24.95 13.3 56 43 0.9 33.7
23:50 1015 29.97 844 24.92 13.1 55.7 42 0.7 33.3
23:55 1015 29.97 844 24.92 13.1 55.5 43 0.9 33.7
24:00 1015 29.97 845 24.95 12.8 55 45 1.2 34.2